P/v Golden Gate — WDE5665 — position and weather

sailwx.info

Track history (hours):
 
Tides and Currents Weather Stations Pressure Air Temp Water Temp Dewpoint Dewpoint Depression Visibility Wind Speed Wind Dir Waves Ship Positions

P/v Golden Gate

More information available from US FCC via Universal Licensing System and Coast Guard Vessel Documentation Center.

Last reported at 2014-Sep-20 17:33 UTC. Time now 2014-Sep-20 18:00 UTC.
Position N 37°49' W 122°25'.

Length 23 m; draft 2 m.

Type: Pilot. MMSI: 367370010.

Date/timePositionNaut miles runAvg speedWind from/ knotsBaromVisibWave heightAir tempDewpointWater temp
2014-Sep-20 17:33N 37°49' W 122°25'1 1.2
2014-Sep-20 16:33N 37°48' W 122°24'1 1.3
2014-Sep-20 15:33N 37°49' W 122°25'5 5.1
2014-Sep-20 14:33N 37°45' W 122°20'4 3.8
2014-Sep-20 13:33N 37°48' W 122°24'0 0.0
2014-Sep-20 12:33N 37°48' W 122°24'5 4.7
2014-Sep-20 11:33N 37°49' W 122°30'1 1.0
2014-Sep-20 10:33N 37°49' W 122°28'4 3.8
2014-Sep-20 09:34N 37°48' W 122°24'0 0.0
2014-Sep-20 08:33N 37°48' W 122°24'0 0.0
2014-Sep-20 07:33N 37°48' W 122°24'0 0.0
2014-Sep-20 06:33N 37°48' W 122°24'2 2.1
2014-Sep-20 05:33N 37°49' W 122°26'6 6.4
2014-Sep-20 04:33N 37°44' W 122°21'4 3.8
2014-Sep-20 03:33N 37°48' W 122°19'1615.7
2014-Sep-20 02:34N 37°46' W 122°39'1212.3
2014-Sep-20 01:34N 37°48' W 122°24'1 0.9
2014-Sep-20 00:34N 37°48' W 122°23'3 2.9
2014-Sep-19 23:33N 37°48' W 122°19'4 3.6
2014-Sep-19 22:33N 37°48' W 122°24'0 0.0
2014-Sep-19 21:33N 37°48' W 122°24'0 0.0
2014-Sep-19 20:33N 37°48' W 122°24'1 0.9
2014-Sep-19 19:34N 37°48' W 122°23'2 1.6
2014-Sep-19 18:33N 37°46' W 122°23'1 1.2
2014-Sep-19 17:33N 37°47' W 122°22'2 2.2
2014-Sep-19 16:33N 37°48' W 122°24'0 0.0
2014-Sep-19 15:33N 37°48' W 122°24'2 2.5
2014-Sep-19 14:34N 37°48' W 122°21'0 0.1
2014-Sep-19 13:33N 37°48' W 122°21'2 2.2
2014-Sep-19 12:34N 37°48' W 122°23'0 0.3
2014-Sep-19 11:33N 37°48' W 122°24'9 8.8
2014-Sep-19 10:34N 37°47' W 122°35'9 8.8
2014-Sep-19 09:34N 37°48' W 122°24'0 0.0
2014-Sep-19 08:34N 37°48' W 122°24'0 0.0
2014-Sep-19 07:33N 37°48' W 122°24'0 0.0
2014-Sep-19 06:33N 37°48' W 122°24'0 0.0
2014-Sep-19 05:33N 37°48' W 122°24'4 4.1
2014-Sep-19 04:33N 37°49' W 122°29'7 7.4
2014-Sep-19 03:34N 37°49' W 122°20'1615.9
2014-Sep-19 02:33N 37°45' W 122°39'1111.2
2014-Sep-19 01:33N 37°49' W 122°26'5 5.2
2014-Sep-19 00:33N 37°46' W 122°21'3 3.2
2014-Sep-18 23:33N 37°48' W 122°24'0 0.0
2014-Sep-18 22:33N 37°48' W 122°24'0 0.0
2014-Sep-18 21:26N 37°48' W 122°24'0 0.0
2014-Sep-18 20:33N 37°48' W 122°24'0 0.0
2014-Sep-18 19:33N 37°48' W 122°24'0 0.0
2014-Sep-18 18:33N 37°48' W 122°24'0 0.0
2014-Sep-18 17:33N 37°48' W 122°24'0 0.0
2014-Sep-18 16:33N 37°48' W 122°24'0 0.0
2014-Sep-18 15:33N 37°48' W 122°24'2 2.2
2014-Sep-18 14:34N 37°46' W 122°22'2 2.2
2014-Sep-18 13:33N 37°48' W 122°24'0 0.0
2014-Sep-18 12:33N 37°48' W 122°24'0 0.0
2014-Sep-18 11:33N 37°48' W 122°24'0 0.0
2014-Sep-18 10:33N 37°48' W 122°24'0 0.0
2014-Sep-18 09:33N 37°48' W 122°24'0 0.0
2014-Sep-18 08:33N 37°48' W 122°24'0 0.0
2014-Sep-18 07:33N 37°48' W 122°24'0 0.0
2014-Sep-18 06:33N 37°48' W 122°24'0 0.0
2014-Sep-18 05:33N 37°48' W 122°24'0 0.0
2014-Sep-18 04:33N 37°48' W 122°24'0 0.0
2014-Sep-18 03:33N 37°48' W 122°24'0 0.0
2014-Sep-18 02:33N 37°48' W 122°24'0 0.0
2014-Sep-18 01:33N 37°48' W 122°24'0 0.0
2014-Sep-18 00:33N 37°48' W 122°24'0 0.0
2014-Sep-17 23:33N 37°48' W 122°24'4 3.8
2014-Sep-17 22:34N 37°49' W 122°19'4 3.8
2014-Sep-17 21:33N 37°48' W 122°24'0 0.0
2014-Sep-17 20:33N 37°48' W 122°24'2 2.5
2014-Sep-17 19:33N 37°46' W 122°22'2 2.5
2014-Sep-17 18:33N 37°48' W 122°24'0 0.0
2014-Sep-17 17:33N 37°48' W 122°24'1 1.1
2014-Sep-17 16:34N 37°48' W 122°22'1 1.1
2014-Sep-17 15:33N 37°48' W 122°24'1 1.3
2014-Sep-17 14:33N 37°49' W 122°25'1 1.3
2014-Sep-17 13:33N 37°48' W 122°24'3 3.3
2014-Sep-17 12:34N 37°45' W 122°21'3 3.3
2014-Sep-17 11:33N 37°48' W 122°24'3 2.7
2014-Sep-17 10:34N 37°47' W 122°21'3 2.7
2014-Sep-17 09:33N 37°48' W 122°24'0 0.0
2014-Sep-17 08:33N 37°48' W 122°24'4 4.0
2014-Sep-17 07:33N 37°45' W 122°20'1 1.0
2014-Sep-17 06:33N 37°46' W 122°21'3 2.9
2014-Sep-17 05:33N 37°48' W 122°23'2 1.9
2014-Sep-17 04:33N 37°49' W 122°25'4 4.5
2014-Sep-17 03:34N 37°48' W 122°31'6 5.6
2014-Sep-17 02:33N 37°48' W 122°24'0 0.0
2014-Sep-17 01:34N 37°48' W 122°24'2 1.8
2014-Sep-17 00:34N 37°48' W 122°22'1 1.3
2014-Sep-16 23:33N 37°49' W 122°20'4 4.4
2014-Sep-16 22:33N 37°45' W 122°22'1010.0
2014-Sep-16 21:33N 37°47' W 122°34'1211.8
2014-Sep-16 20:33N 37°49' W 122°20'3 2.8
2014-Sep-16 19:33N 37°48' W 122°23'1 0.8
2014-Sep-16 18:33N 37°48' W 122°24'0 0.0
2014-Sep-16 17:33N 37°48' W 122°24'0 0.0
2014-Sep-16 16:33N 37°48' W 122°24'0 0.0
2014-Sep-16 15:33N 37°48' W 122°24'1 0.9
2014-Sep-16 14:13N 37°49' W 122°25'1 1.8
2014-Sep-16 13:33N 37°48' W 122°24'0 0.0
2014-Sep-16 12:33N 37°48' W 122°24'6 5.9
2014-Sep-16 11:34N 37°48' W 122°31'6 5.7
2014-Sep-16 10:33N 37°49' W 122°24'4 3.8
2014-Sep-16 09:33N 37°46' W 122°21'3 3.3
2014-Sep-16 08:34N 37°48' W 122°24'0 0.0
2014-Sep-16 07:33N 37°48' W 122°24'0 0.0
2014-Sep-16 06:33N 37°48' W 122°24'0 0.0
2014-Sep-16 05:33N 37°48' W 122°24'0 0.0
2014-Sep-16 04:34N 37°48' W 122°24'1211.9
2014-Sep-16 03:33N 37°46' W 122°39'1515.4
2014-Sep-16 02:34N 37°49' W 122°19'3 3.2
2014-Sep-16 01:34N 37°49' W 122°23'1 0.8
2014-Sep-16 00:34N 37°48' W 122°24'4 3.9
2014-Sep-15 23:33N 37°48' W 122°19'5 4.7
2014-Sep-15 22:34N 37°50' W 122°24'2 1.5
2014-Sep-15 21:33N 37°48' W 122°24'6 5.6
2014-Sep-15 20:33N 37°48' W 122°31'6 5.6
2014-Sep-15 19:34N 37°48' W 122°24'0 0.0
2014-Sep-15 18:33N 37°48' W 122°24'3 3.2
2014-Sep-15 17:33N 37°46' W 122°20'3 3.2
2014-Sep-15 16:33N 37°48' W 122°24'0 0.0
2014-Sep-15 15:33N 37°48' W 122°24'1 0.7
2014-Sep-15 14:34N 37°48' W 122°23'2 1.2
2014-Sep-15 13:06N 37°49' W 122°25'1 2.2
2014-Sep-15 12:33N 37°48' W 122°24'1 1.4
2014-Sep-15 11:33N 37°48' W 122°22'1 1.2
2014-Sep-15 10:33N 37°48' W 122°24'0 0.2
2014-Sep-15 09:34N 37°48' W 122°24'0 0.0
2014-Sep-15 08:33N 37°48' W 122°24'0 0.0
2014-Sep-15 07:33N 37°48' W 122°24'0 0.0
2014-Sep-15 06:33N 37°48' W 122°24'1 1.0
2014-Sep-15 05:34N 37°49' W 122°24'5 5.3
2014-Sep-15 04:34N 37°48' W 122°31'6 5.7
2014-Sep-15 03:33N 37°48' W 122°24'0 0.0
2014-Sep-15 02:33N 37°48' W 122°24'1 0.7
2014-Sep-15 01:34N 37°48' W 122°23'1 0.7
2014-Sep-15 00:34N 37°48' W 122°24'0 0.2
2014-Sep-14 23:33N 37°48' W 122°24'1212.1
2014-Sep-14 22:33N 37°46' W 122°39'1615.7
2014-Sep-14 21:33N 37°49' W 122°19'4 3.7
2014-Sep-14 20:33N 37°45' W 122°21'1514.8
2014-Sep-14 19:33N 37°46' W 122°39'1212.2
2014-Sep-14 18:33N 37°49' W 122°25'2 2.2
2014-Sep-14 17:33N 37°48' W 122°22'1 1.5
2014-Sep-14 16:33N 37°48' W 122°24'0 0.0
2014-Sep-14 15:33N 37°48' W 122°24'0 0.0
2014-Sep-14 14:33N 37°48' W 122°24'0 0.0
2014-Sep-14 13:33N 37°48' W 122°24'3 2.6
2014-Sep-14 12:33N 37°47' W 122°21'3 2.6
2014-Sep-14 11:34N 37°48' W 122°24'1312.5
2014-Sep-14 10:34N 37°46' W 122°39'1312.5
2014-Sep-14 09:33N 37°48' W 122°24'0 0.0
2014-Sep-14 08:33N 37°48' W 122°24'0 0.0
2014-Sep-14 07:33N 37°48' W 122°24'0 0.0
2014-Sep-14 06:33N 37°48' W 122°24'0 0.0
2014-Sep-14 05:33N 37°48' W 122°24'0 0.0
2014-Sep-14 04:33N 37°48' W 122°24'0 0.0
2014-Sep-14 03:33N 37°48' W 122°24'0 0.0
2014-Sep-14 02:33N 37°48' W 122°24'10 9.9
2014-Sep-14 01:34N 37°46' W 122°36'10 2.5
2014-Sep-13 21:34N 37°48' W 122°24'2 2.4
2014-Sep-13 20:33N 37°49' W 122°27'2 2.4
2014-Sep-13 19:33N 37°48' W 122°24'1111.4
2014-Sep-13 18:33N 37°46' W 122°38'1211.9
2014-Sep-13 17:33N 37°48' W 122°23'1 0.5
2014-Sep-13 16:33N 37°48' W 122°24'0 0.0
2014-Sep-13 15:33N 37°48' W 122°24'2 2.2
2014-Sep-13 14:33N 37°49' W 122°26'2 2.2
2014-Sep-13 13:34N 37°48' W 122°24'0 0.1
2014-Sep-13 12:34N 37°48' W 122°24'0 0.1
2014-Sep-13 11:33N 37°48' W 122°24'0 0.0
2014-Sep-13 10:33N 37°48' W 122°24'0 0.2
2014-Sep-13 09:33N 37°48' W 122°24'0 0.2
2014-Sep-13 08:34N 37°48' W 122°24'0 0.0
2014-Sep-13 07:33N 37°48' W 122°24'3 2.6
2014-Sep-13 06:33N 37°48' W 122°20'3 2.6
2014-Sep-13 05:33N 37°48' W 122°24'8 7.9
2014-Sep-13 04:34N 37°47' W 122°34'8 7.8
2014-Sep-13 03:34N 37°48' W 122°24'0 0.0
2014-Sep-13 02:33N 37°48' W 122°24'10 9.6
2014-Sep-13 01:33N 37°47' W 122°36'1211.8
2014-Sep-13 00:33N 37°46' W 122°21'3 3.4
2014-Sep-12 23:33N 37°48' W 122°24'0 0.0
2014-Sep-12 22:33N 37°48' W 122°24'0 0.0
2014-Sep-12 21:33N 37°48' W 122°24'2 1.6
2014-Sep-12 20:33N 37°47' W 122°22'2 1.6
2014-Sep-12 19:33N 37°48' W 122°24'0 0.0
2014-Sep-12 18:33N 37°48' W 122°24'0 0.0
2014-Sep-12 17:33N 37°48' W 122°24'0 0.0
2014-Sep-12 16:33N 37°48' W 122°24'4 4.0
2014-Sep-12 15:33N 37°48' W 122°19'4 4.0
2014-Sep-12 14:33N 37°48' W 122°24'1 1.2
2014-Sep-12 13:32N 37°49' W 122°25'5 4.9
2014-Sep-12 12:34N 37°48' W 122°19'4 3.6
2014-Sep-12 11:33N 37°48' W 122°24'1010.2
2014-Sep-12 10:33N 37°46' W 122°36'1010.2
2014-Sep-12 09:34N 37°48' W 122°24'0 0.0
2014-Sep-12 08:34N 37°48' W 122°24'0 0.0
2014-Sep-12 07:33N 37°48' W 122°24'0 0.0
2014-Sep-12 06:34N 37°48' W 122°24'0 0.0
2014-Sep-12 05:34N 37°48' W 122°24'3 3.0
2014-Sep-12 04:33N 37°46' W 122°22'3 3.0
2014-Sep-12 03:33N 37°48' W 122°24'0 0.0
2014-Sep-12 02:33N 37°48' W 122°24'0 0.0
2014-Sep-12 01:33N 37°48' W 122°24'0 0.0
2014-Sep-12 00:34N 37°48' W 122°24'0 0.3
2014-Sep-11 23:34N 37°48' W 122°23'6 6.3
2014-Sep-11 22:33N 37°48' W 122°31'6 5.9
2014-Sep-11 21:33N 37°48' W 122°24'0 0.0
2014-Sep-11 20:33N 37°48' W 122°24'0 0.5
2014-Sep-11 19:34N 37°48' W 122°23'0 0.5
2014-Sep-11 18:33N 37°48' W 122°24'0 0.0
2014-Sep-11 17:33N 37°48' W 122°24'0 0.0
2014-Sep-11 16:33N 37°48' W 122°24'0 0.0
2014-Sep-11 15:33N 37°48' W 122°24'0 0.0
2014-Sep-11 14:28N 37°48' W 122°24'4 4.9
2014-Sep-11 13:33N 37°44' W 122°20'5 4.5
2014-Sep-11 12:33N 37°48' W 122°24'6 6.3
2014-Sep-11 11:33N 37°47' W 122°32'6 6.4
2014-Sep-11 10:33N 37°48' W 122°24'0 0.0
2014-Sep-11 09:33N 37°48' W 122°24'0 0.0
2014-Sep-11 08:33N 37°48' W 122°24'0 0.0
2014-Sep-11 07:33N 37°48' W 122°24'0 0.0
2014-Sep-11 06:33N 37°48' W 122°24'0 0.0
2014-Sep-11 05:33N 37°48' W 122°24'5 4.9
2014-Sep-11 04:33N 37°49' W 122°30'2 1.7
2014-Sep-11 03:33N 37°48' W 122°32'9 9.3
2014-Sep-11 02:33N 37°49' W 122°20'3 2.7
2014-Sep-11 01:33N 37°48' W 122°24'2 2.0
2014-Sep-11 00:33N 37°48' W 122°21'2 1.9
2014-Sep-10 23:33N 37°48' W 122°24'0 0.1
2014-Sep-10 22:33N 37°48' W 122°24'2 1.8
2014-Sep-10 21:33N 37°49' W 122°25'1 1.2
2014-Sep-10 20:33N 37°49' W 122°24'1 0.6
2014-Sep-10 19:33N 37°48' W 122°24'2 1.5
2014-Sep-10 18:34N 37°47' W 122°22'2 2.0
2014-Sep-10 17:33N 37°49' W 122°24'  
Track history (hours):
 
Tides and Currents Weather Stations Pressure Air Temp Water Temp Dewpoint Dewpoint Depression Visibility Wind Speed Wind Dir Waves Ship Positions

P/v Golden Gate

More information available from US FCC via Universal Licensing System and Coast Guard Vessel Documentation Center.

Last reported at 2014-Sep-20 17:33 UTC. Time now 2014-Sep-20 18:00 UTC.
Position N 37°49' W 122°25'.

Length 23 m; draft 2 m.

Type: Pilot. MMSI: 367370010.

Date/timePositionNaut miles runAvg speedWind from/ knotsBaromVisibWave heightAir tempDewpointWater temp
2014-Sep-20 17:33N 37°49' W 122°25'1 1.2
2014-Sep-20 16:33N 37°48' W 122°24'1 1.3
2014-Sep-20 15:33N 37°49' W 122°25'5 5.1
2014-Sep-20 14:33N 37°45' W 122°20'4 3.8
2014-Sep-20 13:33N 37°48' W 122°24'0 0.0
2014-Sep-20 12:33N 37°48' W 122°24'5 4.7
2014-Sep-20 11:33N 37°49' W 122°30'1 1.0
2014-Sep-20 10:33N 37°49' W 122°28'4 3.8
2014-Sep-20 09:34N 37°48' W 122°24'0 0.0
2014-Sep-20 08:33N 37°48' W 122°24'0 0.0
2014-Sep-20 07:33N 37°48' W 122°24'0 0.0
2014-Sep-20 06:33N 37°48' W 122°24'2 2.1
2014-Sep-20 05:33N 37°49' W 122°26'6 6.4
2014-Sep-20 04:33N 37°44' W 122°21'4 3.8
2014-Sep-20 03:33N 37°48' W 122°19'1615.7
2014-Sep-20 02:34N 37°46' W 122°39'1212.3
2014-Sep-20 01:34N 37°48' W 122°24'1 0.9
2014-Sep-20 00:34N 37°48' W 122°23'3 2.9
2014-Sep-19 23:33N 37°48' W 122°19'4 3.6
2014-Sep-19 22:33N 37°48' W 122°24'0 0.0
2014-Sep-19 21:33N 37°48' W 122°24'0 0.0
2014-Sep-19 20:33N 37°48' W 122°24'1 0.9
2014-Sep-19 19:34N 37°48' W 122°23'2 1.6
2014-Sep-19 18:33N 37°46' W 122°23'1 1.2
2014-Sep-19 17:33N 37°47' W 122°22'2 2.2
2014-Sep-19 16:33N 37°48' W 122°24'0 0.0
2014-Sep-19 15:33N 37°48' W 122°24'2 2.5
2014-Sep-19 14:34N 37°48' W 122°21'0 0.1
2014-Sep-19 13:33N 37°48' W 122°21'2 2.2
2014-Sep-19 12:34N 37°48' W 122°23'0 0.3
2014-Sep-19 11:33N 37°48' W 122°24'9 8.8
2014-Sep-19 10:34N 37°47' W 122°35'9 8.8
2014-Sep-19 09:34N 37°48' W 122°24'0 0.0
2014-Sep-19 08:34N 37°48' W 122°24'0 0.0
2014-Sep-19 07:33N 37°48' W 122°24'0 0.0
2014-Sep-19 06:33N 37°48' W 122°24'0 0.0
2014-Sep-19 05:33N 37°48' W 122°24'4 4.1
2014-Sep-19 04:33N 37°49' W 122°29'7 7.4
2014-Sep-19 03:34N 37°49' W 122°20'1615.9
2014-Sep-19 02:33N 37°45' W 122°39'1111.2
2014-Sep-19 01:33N 37°49' W 122°26'5 5.2
2014-Sep-19 00:33N 37°46' W 122°21'3 3.2
2014-Sep-18 23:33N 37°48' W 122°24'0 0.0
2014-Sep-18 22:33N 37°48' W 122°24'0 0.0
2014-Sep-18 21:26N 37°48' W 122°24'0 0.0
2014-Sep-18 20:33N 37°48' W 122°24'0 0.0
2014-Sep-18 19:33N 37°48' W 122°24'0 0.0
2014-Sep-18 18:33N 37°48' W 122°24'0 0.0
2014-Sep-18 17:33N 37°48' W 122°24'0 0.0
2014-Sep-18 16:33N 37°48' W 122°24'0 0.0
2014-Sep-18 15:33N 37°48' W 122°24'2 2.2
2014-Sep-18 14:34N 37°46' W 122°22'2 2.2
2014-Sep-18 13:33N 37°48' W 122°24'0 0.0
2014-Sep-18 12:33N 37°48' W 122°24'0 0.0
2014-Sep-18 11:33N 37°48' W 122°24'0 0.0
2014-Sep-18 10:33N 37°48' W 122°24'0 0.0
2014-Sep-18 09:33N 37°48' W 122°24'0 0.0
2014-Sep-18 08:33N 37°48' W 122°24'0 0.0
2014-Sep-18 07:33N 37°48' W 122°24'0 0.0
2014-Sep-18 06:33N 37°48' W 122°24'0 0.0
2014-Sep-18 05:33N 37°48' W 122°24'0 0.0
2014-Sep-18 04:33N 37°48' W 122°24'0 0.0
2014-Sep-18 03:33N 37°48' W 122°24'0 0.0
2014-Sep-18 02:33N 37°48' W 122°24'0 0.0
2014-Sep-18 01:33N 37°48' W 122°24'0 0.0
2014-Sep-18 00:33N 37°48' W 122°24'0 0.0
2014-Sep-17 23:33N 37°48' W 122°24'4 3.8
2014-Sep-17 22:34N 37°49' W 122°19'4 3.8
2014-Sep-17 21:33N 37°48' W 122°24'0 0.0
2014-Sep-17 20:33N 37°48' W 122°24'2 2.5
2014-Sep-17 19:33N 37°46' W 122°22'2 2.5
2014-Sep-17 18:33N 37°48' W 122°24'0 0.0
2014-Sep-17 17:33N 37°48' W 122°24'1 1.1
2014-Sep-17 16:34N 37°48' W 122°22'1 1.1
2014-Sep-17 15:33N 37°48' W 122°24'1 1.3
2014-Sep-17 14:33N 37°49' W 122°25'1 1.3
2014-Sep-17 13:33N 37°48' W 122°24'3 3.3
2014-Sep-17 12:34N 37°45' W 122°21'3 3.3
2014-Sep-17 11:33N 37°48' W 122°24'3 2.7
2014-Sep-17 10:34N 37°47' W 122°21'3 2.7
2014-Sep-17 09:33N 37°48' W 122°24'0 0.0
2014-Sep-17 08:33N 37°48' W 122°24'4 4.0
2014-Sep-17 07:33N 37°45' W 122°20'1 1.0
2014-Sep-17 06:33N 37°46' W 122°21'3 2.9
2014-Sep-17 05:33N 37°48' W 122°23'2 1.9
2014-Sep-17 04:33N 37°49' W 122°25'4 4.5
2014-Sep-17 03:34N 37°48' W 122°31'6 5.6
2014-Sep-17 02:33N 37°48' W 122°24'0 0.0
2014-Sep-17 01:34N 37°48' W 122°24'2 1.8
2014-Sep-17 00:34N 37°48' W 122°22'1 1.3
2014-Sep-16 23:33N 37°49' W 122°20'4 4.4
2014-Sep-16 22:33N 37°45' W 122°22'1010.0
2014-Sep-16 21:33N 37°47' W 122°34'1211.8
2014-Sep-16 20:33N 37°49' W 122°20'3 2.8
2014-Sep-16 19:33N 37°48' W 122°23'1 0.8
2014-Sep-16 18:33N 37°48' W 122°24'0 0.0
2014-Sep-16 17:33N 37°48' W 122°24'0 0.0
2014-Sep-16 16:33N 37°48' W 122°24'0 0.0
2014-Sep-16 15:33N 37°48' W 122°24'1 0.9
2014-Sep-16 14:13N 37°49' W 122°25'1 1.8
2014-Sep-16 13:33N 37°48' W 122°24'0 0.0
2014-Sep-16 12:33N 37°48' W 122°24'6 5.9
2014-Sep-16 11:34N 37°48' W 122°31'6 5.7
2014-Sep-16 10:33N 37°49' W 122°24'4 3.8
2014-Sep-16 09:33N 37°46' W 122°21'3 3.3
2014-Sep-16 08:34N 37°48' W 122°24'0 0.0
2014-Sep-16 07:33N 37°48' W 122°24'0 0.0
2014-Sep-16 06:33N 37°48' W 122°24'0 0.0
2014-Sep-16 05:33N 37°48' W 122°24'0 0.0
2014-Sep-16 04:34N 37°48' W 122°24'1211.9
2014-Sep-16 03:33N 37°46' W 122°39'1515.4
2014-Sep-16 02:34N 37°49' W 122°19'3 3.2
2014-Sep-16 01:34N 37°49' W 122°23'1 0.8
2014-Sep-16 00:34N 37°48' W 122°24'4 3.9
2014-Sep-15 23:33N 37°48' W 122°19'5 4.7
2014-Sep-15 22:34N 37°50' W 122°24'2 1.5
2014-Sep-15 21:33N 37°48' W 122°24'6 5.6
2014-Sep-15 20:33N 37°48' W 122°31'6 5.6
2014-Sep-15 19:34N 37°48' W 122°24'0 0.0
2014-Sep-15 18:33N 37°48' W 122°24'3 3.2
2014-Sep-15 17:33N 37°46' W 122°20'3 3.2
2014-Sep-15 16:33N 37°48' W 122°24'0 0.0
2014-Sep-15 15:33N 37°48' W 122°24'1 0.7
2014-Sep-15 14:34N 37°48' W 122°23'2 1.2
2014-Sep-15 13:06N 37°49' W 122°25'1 2.2
2014-Sep-15 12:33N 37°48' W 122°24'1 1.4
2014-Sep-15 11:33N 37°48' W 122°22'1 1.2
2014-Sep-15 10:33N 37°48' W 122°24'0 0.2
2014-Sep-15 09:34N 37°48' W 122°24'0 0.0
2014-Sep-15 08:33N 37°48' W 122°24'0 0.0
2014-Sep-15 07:33N 37°48' W 122°24'0 0.0
2014-Sep-15 06:33N 37°48' W 122°24'1 1.0
2014-Sep-15 05:34N 37°49' W 122°24'5 5.3
2014-Sep-15 04:34N 37°48' W 122°31'6 5.7
2014-Sep-15 03:33N 37°48' W 122°24'0 0.0
2014-Sep-15 02:33N 37°48' W 122°24'1 0.7
2014-Sep-15 01:34N 37°48' W 122°23'1 0.7
2014-Sep-15 00:34N 37°48' W 122°24'0 0.2
2014-Sep-14 23:33N 37°48' W 122°24'1212.1
2014-Sep-14 22:33N 37°46' W 122°39'1615.7
2014-Sep-14 21:33N 37°49' W 122°19'4 3.7
2014-Sep-14 20:33N 37°45' W 122°21'1514.8
2014-Sep-14 19:33N 37°46' W 122°39'1212.2
2014-Sep-14 18:33N 37°49' W 122°25'2 2.2
2014-Sep-14 17:33N 37°48' W 122°22'1 1.5
2014-Sep-14 16:33N 37°48' W 122°24'0 0.0
2014-Sep-14 15:33N 37°48' W 122°24'0 0.0
2014-Sep-14 14:33N 37°48' W 122°24'0 0.0
2014-Sep-14 13:33N 37°48' W 122°24'3 2.6
2014-Sep-14 12:33N 37°47' W 122°21'3 2.6
2014-Sep-14 11:34N 37°48' W 122°24'1312.5
2014-Sep-14 10:34N 37°46' W 122°39'1312.5
2014-Sep-14 09:33N 37°48' W 122°24'0 0.0
2014-Sep-14 08:33N 37°48' W 122°24'0 0.0
2014-Sep-14 07:33N 37°48' W 122°24'0 0.0
2014-Sep-14 06:33N 37°48' W 122°24'0 0.0
2014-Sep-14 05:33N 37°48' W 122°24'0 0.0
2014-Sep-14 04:33N 37°48' W 122°24'0 0.0
2014-Sep-14 03:33N 37°48' W 122°24'0 0.0
2014-Sep-14 02:33N 37°48' W 122°24'10 9.9
2014-Sep-14 01:34N 37°46' W 122°36'10 2.5
2014-Sep-13 21:34N 37°48' W 122°24'2 2.4
2014-Sep-13 20:33N 37°49' W 122°27'2 2.4
2014-Sep-13 19:33N 37°48' W 122°24'1111.4
2014-Sep-13 18:33N 37°46' W 122°38'1211.9
2014-Sep-13 17:33N 37°48' W 122°23'1 0.5
2014-Sep-13 16:33N 37°48' W 122°24'0 0.0
2014-Sep-13 15:33N 37°48' W 122°24'2 2.2
2014-Sep-13 14:33N 37°49' W 122°26'2 2.2
2014-Sep-13 13:34N 37°48' W 122°24'0 0.1
2014-Sep-13 12:34N 37°48' W 122°24'0 0.1
2014-Sep-13 11:33N 37°48' W 122°24'0 0.0
2014-Sep-13 10:33N 37°48' W 122°24'0 0.2
2014-Sep-13 09:33N 37°48' W 122°24'0 0.2
2014-Sep-13 08:34N 37°48' W 122°24'0 0.0
2014-Sep-13 07:33N 37°48' W 122°24'3 2.6
2014-Sep-13 06:33N 37°48' W 122°20'3 2.6
2014-Sep-13 05:33N 37°48' W 122°24'8 7.9
2014-Sep-13 04:34N 37°47' W 122°34'8 7.8
2014-Sep-13 03:34N 37°48' W 122°24'0 0.0
2014-Sep-13 02:33N 37°48' W 122°24'10 9.6
2014-Sep-13 01:33N 37°47' W 122°36'1211.8
2014-Sep-13 00:33N 37°46' W 122°21'3 3.4
2014-Sep-12 23:33N 37°48' W 122°24'0 0.0
2014-Sep-12 22:33N 37°48' W 122°24'0 0.0
2014-Sep-12 21:33N 37°48' W 122°24'2 1.6
2014-Sep-12 20:33N 37°47' W 122°22'2 1.6
2014-Sep-12 19:33N 37°48' W 122°24'0 0.0
2014-Sep-12 18:33N 37°48' W 122°24'0 0.0
2014-Sep-12 17:33N 37°48' W 122°24'0 0.0
2014-Sep-12 16:33N 37°48' W 122°24'4 4.0
2014-Sep-12 15:33N 37°48' W 122°19'4 4.0
2014-Sep-12 14:33N 37°48' W 122°24'1 1.2
2014-Sep-12 13:32N 37°49' W 122°25'5 4.9
2014-Sep-12 12:34N 37°48' W 122°19'4 3.6
2014-Sep-12 11:33N 37°48' W 122°24'1010.2
2014-Sep-12 10:33N 37°46' W 122°36'1010.2
2014-Sep-12 09:34N 37°48' W 122°24'0 0.0
2014-Sep-12 08:34N 37°48' W 122°24'0 0.0
2014-Sep-12 07:33N 37°48' W 122°24'0 0.0
2014-Sep-12 06:34N 37°48' W 122°24'0 0.0
2014-Sep-12 05:34N 37°48' W 122°24'3 3.0
2014-Sep-12 04:33N 37°46' W 122°22'3 3.0
2014-Sep-12 03:33N 37°48' W 122°24'0 0.0
2014-Sep-12 02:33N 37°48' W 122°24'0 0.0
2014-Sep-12 01:33N 37°48' W 122°24'0 0.0
2014-Sep-12 00:34N 37°48' W 122°24'0 0.3
2014-Sep-11 23:34N 37°48' W 122°23'6 6.3
2014-Sep-11 22:33N 37°48' W 122°31'6 5.9
2014-Sep-11 21:33N 37°48' W 122°24'0 0.0
2014-Sep-11 20:33N 37°48' W 122°24'0 0.5
2014-Sep-11 19:34N 37°48' W 122°23'0 0.5
2014-Sep-11 18:33N 37°48' W 122°24'0 0.0
2014-Sep-11 17:33N 37°48' W 122°24'0 0.0
2014-Sep-11 16:33N 37°48' W 122°24'0 0.0
2014-Sep-11 15:33N 37°48' W 122°24'0 0.0
2014-Sep-11 14:28N 37°48' W 122°24'4 4.9
2014-Sep-11 13:33N 37°44' W 122°20'5 4.5
2014-Sep-11 12:33N 37°48' W 122°24'6 6.3
2014-Sep-11 11:33N 37°47' W 122°32'6 6.4
2014-Sep-11 10:33N 37°48' W 122°24'0 0.0
2014-Sep-11 09:33N 37°48' W 122°24'0 0.0
2014-Sep-11 08:33N 37°48' W 122°24'0 0.0
2014-Sep-11 07:33N 37°48' W 122°24'0 0.0
2014-Sep-11 06:33N 37°48' W 122°24'0 0.0
2014-Sep-11 05:33N 37°48' W 122°24'5 4.9
2014-Sep-11 04:33N 37°49' W 122°30'2 1.7
2014-Sep-11 03:33N 37°48' W 122°32'9 9.3
2014-Sep-11 02:33N 37°49' W 122°20'3 2.7
2014-Sep-11 01:33N 37°48' W 122°24'2 2.0
2014-Sep-11 00:33N 37°48' W 122°21'2 1.9
2014-Sep-10 23:33N 37°48' W 122°24'0 0.1
2014-Sep-10 22:33N 37°48' W 122°24'2 1.8
2014-Sep-10 21:33N 37°49' W 122°25'1 1.2
2014-Sep-10 20:33N 37°49' W 122°24'1 0.6
2014-Sep-10 19:33N 37°48' W 122°24'2 1.5
2014-Sep-10 18:34N 37°47' W 122°22'2 2.0
2014-Sep-10 17:33N 37°49' W 122°24'  

Dump ship's entire track history